createdAt,value
2022-10-28T00:01:28.348Z,9.07
2022-10-28T00:03:58.224Z,7.70
2022-10-28T00:06:28.348Z,9.07
2022-10-28T00:08:55.583Z,10.52
2022-10-28T00:11:26.918Z,7.55
2022-10-28T00:13:55.669Z,7.25
2022-10-28T00:16:26.400Z,9.60
2022-10-28T00:18:54.422Z,8.05
2022-10-28T00:21:30.469Z,8.77
2022-10-28T00:23:58.295Z,8.18
2022-10-28T00:26:30.876Z,7.90
2022-10-28T00:29:01.339Z,9.35
2022-10-28T00:31:30.146Z,5.80
2022-10-28T00:33:59.447Z,7.00
2022-10-28T00:36:29.994Z,7.45
2022-10-28T00:38:57.582Z,7.00
2022-10-28T00:41:36.370Z,5.85
2022-10-28T00:44:41.082Z,6.80
2022-10-28T00:47:39.755Z,6.90
2022-10-28T00:50:09.846Z,6.55
2022-10-28T00:52:38.157Z,6.53
2022-10-28T00:55:06.579Z,7.82
2022-10-28T00:57:36.859Z,6.35
2022-10-28T01:00:07.255Z,7.20
2022-10-28T01:02:48.282Z,8.70
2022-10-28T01:05:21.753Z,6.85
2022-10-28T01:07:51.649Z,8.65
2022-10-28T01:10:19.983Z,9.07
2022-10-28T01:13:07.965Z,10.18
2022-10-28T01:15:45.796Z,8.18
2022-10-28T01:18:33.928Z,7.50
2022-10-28T01:21:30.252Z,7.07
2022-10-28T01:24:32.799Z,6.45
2022-10-28T01:27:14.991Z,10.57
2022-10-28T01:30:23.350Z,9.35
2022-10-28T01:32:52.812Z,7.78
2022-10-28T01:35:41.673Z,8.65
2022-10-28T01:38:20.406Z,8.20
2022-10-28T01:41:11.450Z,11.63
2022-10-28T01:43:49.069Z,9.98
2022-10-28T01:46:25.092Z,7.32
2022-10-28T01:49:01.207Z,7.28
2022-10-28T01:51:35.163Z,5.32
2022-10-28T01:54:06.663Z,12.98
2022-10-28T01:56:37.854Z,11.00
2022-10-28T01:59:09.511Z,10.05
2022-10-28T02:01:37.683Z,8.02
2022-10-28T02:04:05.202Z,10.95
2022-10-28T02:06:34.826Z,7.97
2022-10-28T02:09:35.218Z,7.65
2022-10-28T02:12:23.474Z,9.32
2022-10-28T02:15:28.188Z,11.25
2022-10-28T02:18:25.598Z,10.40
2022-10-28T02:21:20.035Z,17.05
2022-10-28T02:23:56.538Z,11.02
2022-10-28T02:26:41.990Z,7.40
2022-10-28T02:29:19.886Z,10.77
2022-10-28T02:31:55.097Z,9.93
2022-10-28T02:34:27.421Z,14.32
2022-10-28T02:39:33.697Z,10.23
2022-10-28T02:42:12.982Z,9.48
2022-10-28T02:44:44.585Z,10.50
2022-10-28T02:47:17.125Z,12.25
2022-10-28T02:49:47.849Z,10.30
2022-10-28T02:52:17.050Z,9.60
2022-10-28T02:54:50.147Z,10.00
2022-10-28T02:57:21.407Z,11.63
2022-10-28T02:59:59.290Z,7.75
2022-10-28T03:02:27.271Z,11.80
2022-10-28T03:04:54.744Z,12.02
2022-10-28T03:07:21.891Z,11.45
2022-10-28T03:09:48.970Z,9.18
2022-10-28T03:12:15.998Z,13.93
2022-10-28T03:14:43.126Z,10.90
2022-10-28T03:17:10.234Z,10.98
2022-10-28T03:19:37.336Z,9.90
2022-10-28T03:22:04.429Z,9.00
2022-10-28T03:24:31.472Z,7.32
2022-10-28T03:26:58.482Z,10.68
2022-10-28T03:29:25.566Z,9.95
2022-10-28T03:31:52.776Z,13.15
2022-10-28T03:34:19.869Z,10.23
2022-10-28T03:36:47.019Z,10.00
2022-10-28T03:39:14.887Z,10.68
2022-10-28T03:41:41.972Z,6.40
2022-10-28T03:44:09.168Z,9.43
2022-10-28T03:46:36.396Z,10.20
2022-10-28T03:49:04.381Z,10.52
2022-10-28T03:51:31.557Z,8.88
2022-10-28T03:53:58.601Z,13.45
2022-10-28T03:56:25.693Z,15.40
2022-10-28T04:01:25.033Z,12.90
2022-10-28T04:03:52.158Z,15.30
2022-10-28T04:06:19.204Z,10.48
2022-10-28T04:08:46.209Z,13.68
2022-10-28T04:11:13.276Z,14.07
2022-10-28T04:13:40.311Z,13.10
2022-10-28T04:16:07.664Z,16.48
2022-10-28T04:18:35.623Z,20.05
2022-10-28T04:21:03.577Z,28.35
2022-10-28T04:23:30.676Z,17.33
2022-10-28T04:25:57.826Z,17.63
2022-10-28T04:28:24.933Z,17.58
2022-10-28T04:30:52.106Z,17.95
2022-10-28T04:33:19.359Z,17.63
2022-10-28T04:35:46.611Z,24.92
2022-10-28T04:38:15.513Z,18.67
2022-10-28T04:40:42.798Z,18.27
2022-10-28T04:43:11.780Z,14.85
2022-10-28T04:45:39.605Z,14.32
2022-10-28T04:48:07.282Z,12.15
2022-10-28T04:50:34.395Z,7.35
2022-10-28T04:53:10.852Z,14.18
2022-10-28T04:55:38.099Z,16.55
2022-10-28T04:58:05.300Z,11.85
2022-10-28T05:00:32.571Z,18.30
2022-10-28T05:03:03.448Z,12.13
2022-10-28T05:05:30.669Z,14.77
2022-10-28T05:07:57.993Z,15.15
2022-10-28T05:10:25.162Z,16.40
2022-10-28T05:12:52.345Z,11.63
2022-10-28T05:15:19.410Z,14.55
2022-10-28T05:17:47.695Z,14.10
2022-10-28T05:20:17.361Z,16.55
2022-10-28T05:22:47.948Z,14.02
2022-10-28T05:25:15.085Z,12.70
2022-10-28T05:27:42.220Z,10.43
2022-10-28T05:30:10.780Z,17.55
2022-10-28T05:32:37.929Z,17.30
2022-10-28T05:35:05.701Z,15.30
2022-10-28T05:37:32.818Z,13.18
2022-10-28T05:39:59.942Z,17.98
2022-10-28T05:42:27.044Z,15.98
2022-10-28T05:44:54.180Z,18.60
2022-10-28T05:47:21.261Z,13.55
2022-10-28T05:49:48.491Z,16.83
2022-10-28T05:52:15.587Z,12.52
2022-10-28T05:54:42.622Z,10.95
2022-10-28T05:57:09.689Z,14.02
2022-10-28T05:59:36.911Z,13.50
2022-10-28T06:02:03.976Z,12.13
2022-10-28T06:04:31.271Z,9.50
2022-10-28T06:06:58.428Z,15.52
2022-10-28T06:09:28.429Z,13.40
2022-10-28T06:11:54.029Z,9.95
2022-10-28T06:14:21.216Z,10.63
2022-10-28T06:16:48.307Z,13.23
2022-10-28T06:19:15.681Z,17.77
2022-10-28T06:21:42.853Z,13.85
2022-10-28T06:24:12.144Z,15.43
2022-10-28T06:26:39.648Z,11.95
2022-10-28T06:29:09.421Z,12.88
2022-10-28T06:31:39.200Z,14.60
2022-10-28T06:34:08.255Z,12.10
2022-10-28T06:36:35.792Z,13.63
2022-10-28T06:39:03.459Z,10.68
2022-10-28T06:41:30.668Z,13.98
2022-10-28T06:43:57.771Z,11.73
2022-10-28T06:46:25.032Z,11.10
2022-10-28T06:48:57.166Z,15.80
2022-10-28T06:51:24.382Z,11.00
2022-10-28T06:53:52.622Z,13.68
2022-10-28T06:56:19.775Z,16.77
2022-10-28T06:58:54.400Z,16.02
2022-10-28T07:01:22.522Z,11.32
2022-10-28T07:03:49.835Z,15.20
2022-10-28T07:06:17.535Z,15.15
2022-10-28T07:08:44.931Z,15.40
2022-10-28T07:11:12.140Z,18.55
2022-10-28T07:13:39.282Z,13.10
2022-10-28T07:16:06.589Z,18.20
2022-10-28T07:18:33.669Z,13.35
2022-10-28T07:21:01.766Z,19.15
2022-10-28T07:23:32.526Z,21.13
2022-10-28T07:26:00.038Z,12.95
2022-10-28T07:28:28.237Z,17.23
2022-10-28T07:30:55.461Z,13.95
2022-10-28T07:33:23.145Z,15.32
2022-10-28T07:35:50.235Z,12.75
2022-10-28T07:38:17.329Z,13.40
2022-10-28T07:40:44.575Z,14.55
2022-10-28T07:43:11.760Z,16.00
2022-10-28T07:45:39.128Z,18.67
2022-10-28T07:48:06.962Z,19.00
2022-10-28T07:50:34.206Z,17.52
2022-10-28T07:53:01.447Z,22.55
2022-10-28T07:55:28.597Z,20.88
2022-10-28T07:57:56.019Z,16.95
2022-10-28T08:00:23.455Z,16.55
2022-10-28T08:02:50.609Z,12.90
2022-10-28T08:05:17.908Z,16.92
2022-10-28T08:07:46.840Z,17.88
2022-10-28T08:10:14.199Z,19.00
2022-10-28T08:12:41.254Z,13.65
2022-10-28T08:15:10.675Z,15.27
2022-10-28T08:17:37.887Z,15.75
2022-10-28T08:20:06.412Z,15.57
2022-10-28T08:22:33.428Z,12.10
2022-10-28T08:25:00.469Z,19.48
2022-10-28T08:27:27.671Z,19.25
2022-10-28T08:29:54.789Z,12.40
2022-10-28T08:32:22.250Z,11.25
2022-10-28T08:34:49.700Z,11.73
2022-10-28T08:37:16.942Z,15.95
2022-10-28T08:39:44.211Z,18.25
2022-10-28T08:42:47.534Z,14.10
2022-10-28T08:45:29.299Z,16.27
2022-10-28T08:48:27.299Z,14.55
2022-10-28T08:51:13.508Z,13.82
2022-10-28T08:53:57.327Z,19.27
2022-10-28T08:56:33.681Z,18.60
2022-10-28T08:59:04.928Z,16.02
2022-10-28T09:02:17.717Z,14.20
2022-10-28T09:04:46.562Z,15.38
2022-10-28T09:07:24.853Z,19.00
2022-10-28T09:09:53.953Z,20.20
2022-10-28T09:12:44.821Z,16.80
2022-10-28T09:15:23.040Z,15.50
2022-10-28T09:18:01.490Z,13.48
2022-10-28T09:20:50.678Z,11.70
2022-10-28T09:23:26.396Z,13.90
2022-10-28T09:26:55.411Z,15.68
2022-10-28T09:29:26.518Z,10.77
2022-10-28T09:32:10.010Z,12.68
2022-10-28T09:34:50.538Z,13.90
2022-10-28T09:37:24.390Z,10.88
2022-10-28T09:40:12.462Z,6.72
2022-10-28T09:42:45.860Z,6.03
2022-10-28T09:45:22.015Z,5.05
2022-10-28T09:48:24.599Z,6.30
2022-10-28T09:53:48.904Z,6.60
2022-10-28T09:56:16.047Z,4.78
2022-10-28T09:58:47.055Z,4.05
2022-10-28T10:01:24.161Z,6.57
2022-10-28T10:03:52.373Z,4.75
2022-10-28T10:06:37.115Z,3.33
2022-10-28T10:09:04.922Z,5.00
2022-10-28T10:11:47.829Z,2.25
2022-10-28T10:14:28.754Z,6.78
2022-10-28T10:17:00.618Z,6.47
2022-10-28T10:19:27.769Z,4.97
2022-10-28T10:21:55.524Z,4.80
2022-10-28T10:24:36.220Z,6.88
2022-10-28T10:27:17.715Z,6.40
2022-10-28T10:29:47.562Z,3.03
2022-10-28T10:32:19.311Z,8.77
2022-10-28T10:35:09.295Z,6.30
2022-10-28T10:37:41.525Z,4.30
2022-10-28T10:43:10.085Z,6.70
2022-10-28T10:45:40.814Z,8.02
2022-10-28T10:48:15.717Z,8.82
2022-10-28T10:50:45.522Z,6.38
2022-10-28T10:53:32.668Z,4.80
2022-10-28T10:56:05.946Z,6.70
2022-10-28T10:58:36.306Z,6.70
2022-10-28T11:01:06.178Z,7.65
2022-10-28T11:03:54.715Z,7.18
2022-10-28T11:06:27.428Z,3.45
2022-10-28T11:09:01.400Z,12.88
2022-10-28T11:11:37.124Z,7.15
2022-10-28T11:14:13.639Z,6.18
2022-10-28T11:16:58.375Z,6.82
2022-10-28T11:19:31.084Z,8.80
2022-10-28T11:22:26.355Z,9.32
2022-10-28T11:25:14.411Z,4.82
2022-10-28T11:28:10.964Z,10.10
2022-10-28T11:30:48.591Z,6.47
2022-10-28T11:33:35.604Z,8.18
2022-10-28T11:36:17.570Z,9.80
2022-10-28T11:39:29.972Z,6.35
2022-10-28T11:42:31.147Z,8.32
2022-10-28T11:45:18.508Z,8.15
2022-10-28T11:48:26.150Z,5.85
2022-10-28T11:51:17.975Z,7.63
2022-10-28T11:54:01.603Z,8.10
2022-10-28T11:56:39.548Z,8.98
2022-10-28T11:59:45.418Z,7.07
2022-10-28T12:02:23.144Z,8.32
2022-10-28T12:05:08.101Z,5.50
2022-10-28T12:07:44.067Z,9.85
2022-10-28T12:10:42.434Z,4.10
2022-10-28T12:13:40.371Z,10.00
2022-10-28T12:16:20.363Z,7.10
2022-10-28T12:18:56.572Z,8.35
2022-10-28T12:21:36.646Z,6.80
2022-10-28T12:24:10.059Z,4.80
2022-10-28T12:26:50.423Z,4.97
2022-10-28T12:29:30.562Z,4.53
2022-10-28T12:32:05.982Z,5.53
2022-10-28T12:34:44.717Z,9.80
2022-10-28T12:37:21.502Z,6.90
2022-10-28T12:39:56.125Z,6.60
2022-10-28T12:43:16.448Z,7.20
2022-10-28T12:45:44.365Z,7.53
2022-10-28T12:48:22.222Z,10.13
2022-10-28T12:50:55.155Z,9.32
2022-10-28T12:53:31.512Z,6.93
2022-10-28T12:56:07.142Z,7.60
2022-10-28T12:59:30.152Z,8.75
2022-10-28T13:02:01.443Z,5.53
2022-10-28T13:04:34.052Z,5.70
2022-10-28T13:07:13.889Z,6.05
2022-10-28T13:09:59.811Z,6.97
2022-10-28T13:12:43.620Z,10.15
2022-10-28T13:15:28.782Z,9.13
2022-10-28T13:18:38.386Z,4.70
2022-10-28T13:21:22.334Z,8.05
2022-10-28T13:24:21.238Z,7.85
2022-10-28T13:26:49.547Z,4.45
2022-10-28T13:29:27.454Z,3.70
2022-10-28T13:31:58.470Z,9.27
2022-10-28T13:34:39.653Z,6.50
2022-10-28T13:37:18.501Z,7.57
2022-10-28T13:39:47.253Z,6.65
2022-10-28T13:42:19.673Z,7.25
2022-10-28T13:44:52.863Z,7.68
2022-10-28T13:47:26.458Z,6.30
2022-10-28T13:50:14.187Z,5.40
2022-10-28T13:52:45.933Z,8.23
2022-10-28T13:55:25.332Z,6.95
2022-10-28T13:58:00.943Z,7.82
2022-10-28T14:03:04.526Z,7.93
2022-10-28T14:05:41.617Z,5.85
2022-10-28T14:08:19.085Z,7.72
2022-10-28T14:11:28.791Z,7.85
2022-10-28T14:14:00.878Z,7.00
2022-10-28T14:16:36.895Z,9.88
2022-10-28T14:19:06.930Z,4.70
2022-10-28T14:21:54.403Z,9.48
2022-10-28T14:24:37.115Z,5.22
2022-10-28T14:27:11.710Z,5.93
2022-10-28T14:29:56.925Z,9.23
2022-10-28T14:32:33.388Z,5.65
2022-10-28T14:35:00.621Z,8.80
2022-10-28T14:37:58.860Z,7.05
2022-10-28T14:40:44.221Z,8.52
2022-10-28T14:43:11.355Z,7.95
2022-10-28T14:46:04.144Z,7.78
2022-10-28T14:48:44.768Z,6.25
2022-10-28T14:51:16.624Z,5.30
2022-10-28T14:53:45.689Z,5.13
2022-10-28T14:56:33.149Z,7.22
2022-10-28T14:59:24.125Z,4.88
2022-10-28T15:02:31.046Z,7.53
2022-10-28T15:05:20.539Z,3.63
2022-10-28T15:07:48.437Z,5.90
2022-10-28T15:10:26.992Z,6.43
2022-10-28T15:12:56.153Z,7.80
2022-10-28T15:15:27.743Z,8.13
2022-10-28T15:17:55.699Z,6.38
2022-10-28T15:20:26.997Z,6.90
2022-10-28T15:23:10.840Z,7.05
2022-10-28T15:25:38.082Z,3.40
2022-10-28T15:28:13.146Z,7.90
2022-10-28T15:30:46.453Z,4.40
2022-10-28T15:33:20.135Z,9.10
2022-10-28T15:35:48.238Z,6.03
2022-10-28T15:38:31.506Z,6.68
2022-10-28T15:40:59.295Z,8.10
2022-10-28T15:43:31.346Z,2.90
2022-10-28T15:46:20.142Z,5.63
2022-10-28T15:49:41.199Z,11.03
2022-10-28T15:52:17.948Z,5.10
2022-10-28T15:54:56.766Z,4.85
2022-10-28T15:57:46.407Z,3.45
2022-10-28T16:00:21.707Z,5.40
2022-10-28T16:03:07.708Z,4.03
2022-10-28T16:05:35.044Z,5.53
2022-10-28T16:08:31.479Z,2.97
2022-10-28T16:11:21.853Z,4.97
2022-10-28T16:13:55.493Z,4.15
2022-10-28T16:16:39.090Z,3.92
2022-10-28T16:19:15.509Z,4.55
2022-10-28T16:21:44.665Z,5.32
2022-10-28T16:24:20.578Z,4.53
2022-10-28T16:26:47.731Z,3.78
2022-10-28T16:29:14.830Z,5.47
2022-10-28T16:31:42.518Z,5.80
2022-10-28T16:34:15.615Z,7.50
2022-10-28T16:36:42.759Z,6.43
2022-10-28T16:39:13.312Z,9.75
2022-10-28T16:41:41.002Z,6.63
2022-10-28T16:44:18.483Z,6.03
2022-10-28T16:46:45.588Z,12.05
2022-10-28T16:49:12.792Z,5.70
2022-10-28T16:51:39.938Z,4.82
2022-10-28T16:54:07.652Z,7.00
2022-10-28T16:56:34.760Z,6.22
2022-10-28T16:59:01.895Z,9.15
2022-10-28T17:01:29.251Z,5.10
2022-10-28T17:03:56.400Z,4.97
2022-10-28T17:06:23.582Z,5.03
2022-10-28T17:09:02.958Z,4.15
2022-10-28T17:13:58.765Z,4.68
2022-10-28T17:16:25.970Z,2.63
2022-10-28T17:18:53.154Z,3.35
2022-10-28T17:21:20.384Z,2.63
2022-10-28T17:23:47.494Z,3.67
2022-10-28T17:26:14.590Z,3.50
2022-10-28T17:28:41.751Z,6.75
2022-10-28T17:31:09.371Z,3.83
2022-10-28T17:33:36.666Z,2.60
2022-10-28T17:36:06.446Z,3.10
2022-10-28T17:38:33.649Z,4.70
2022-10-28T17:41:00.733Z,6.00
2022-10-28T17:43:28.199Z,5.28
2022-10-28T17:46:06.774Z,3.30
2022-10-28T17:48:34.359Z,5.82
2022-10-28T17:51:01.675Z,4.68
2022-10-28T17:53:28.812Z,5.95
2022-10-28T17:56:00.098Z,4.63
2022-10-28T17:58:27.786Z,11.20
2022-10-28T18:01:04.470Z,7.47
2022-10-28T18:03:38.129Z,9.75
2022-10-28T18:06:08.395Z,4.40
2022-10-28T18:08:37.485Z,6.38
2022-10-28T18:11:05.933Z,5.05
2022-10-28T18:16:50.315Z,9.90
2022-10-28T18:19:17.870Z,8.18
2022-10-28T18:21:45.652Z,9.45
2022-10-28T18:24:20.569Z,6.43
2022-10-28T18:26:55.525Z,8.18
2022-10-28T18:29:25.562Z,8.95
2022-10-28T18:31:52.983Z,6.47
2022-10-28T18:34:21.318Z,8.15
2022-10-28T18:36:48.555Z,5.35
2022-10-28T18:39:15.933Z,5.15
2022-10-28T18:41:43.827Z,6.85
2022-10-28T18:44:14.086Z,6.05
2022-10-28T18:46:43.708Z,7.68
2022-10-28T18:49:11.600Z,7.88
2022-10-28T18:51:39.110Z,8.75
2022-10-28T18:54:10.837Z,7.65
2022-10-28T18:56:38.277Z,7.70
2022-10-28T18:59:05.764Z,4.40
2022-10-28T19:01:33.588Z,7.03
2022-10-28T19:04:03.017Z,6.88
2022-10-28T19:06:35.151Z,14.68
2022-10-28T19:09:04.618Z,8.07
2022-10-28T19:11:33.631Z,9.85
2022-10-28T19:14:03.748Z,7.85
2022-10-28T19:16:33.503Z,10.10
2022-10-28T19:19:02.146Z,11.02
2022-10-28T19:21:29.667Z,10.32
2022-10-28T19:23:57.195Z,7.80
2022-10-28T19:26:25.058Z,7.72
2022-10-28T19:28:52.347Z,7.07
2022-10-28T19:31:22.157Z,12.48
2022-10-28T19:33:49.585Z,6.68
2022-10-28T19:36:32.907Z,6.57
2022-10-28T19:39:00.454Z,8.98
2022-10-28T19:41:29.596Z,8.15
2022-10-28T19:44:07.932Z,6.50
2022-10-28T19:46:48.172Z,6.90
2022-10-28T19:49:15.327Z,9.93
2022-10-28T19:51:42.433Z,8.63
2022-10-28T19:54:15.063Z,7.20
2022-10-28T19:56:47.433Z,6.72
2022-10-28T20:01:52.337Z,4.82
2022-10-28T20:04:33.954Z,4.90
2022-10-28T20:07:01.137Z,10.10
2022-10-28T20:09:29.495Z,6.70
2022-10-28T20:12:01.809Z,7.60
2022-10-28T20:17:17.515Z,8.65
2022-10-28T20:19:48.421Z,7.90
2022-10-28T20:22:48.219Z,7.15
2022-10-28T20:25:24.059Z,10.77
2022-10-28T20:27:51.214Z,6.90
2022-10-28T20:30:18.363Z,6.75
2022-10-28T20:32:45.427Z,6.82
2022-10-28T20:35:12.801Z,4.03
2022-10-28T20:37:42.308Z,6.47
2022-10-28T20:40:17.045Z,7.05
2022-10-28T20:42:44.154Z,7.10
2022-10-28T20:45:11.437Z,6.95
2022-10-28T20:47:44.700Z,5.95
2022-10-28T20:50:11.913Z,8.93
2022-10-28T20:52:39.110Z,9.10
2022-10-28T20:55:07.492Z,6.00
2022-10-28T20:57:34.638Z,9.50
2022-10-28T21:00:01.994Z,5.63
2022-10-28T21:02:29.158Z,6.35
2022-10-28T21:04:56.267Z,5.47
2022-10-28T21:07:23.361Z,7.65
2022-10-28T21:09:50.966Z,5.18
2022-10-28T21:12:20.704Z,4.75
2022-10-28T21:14:48.064Z,7.05
2022-10-28T21:17:15.250Z,5.20
2022-10-28T21:19:42.333Z,5.28
2022-10-28T21:22:46.451Z,8.38
2022-10-28T21:25:13.649Z,5.05
2022-10-28T21:27:40.813Z,5.90
2022-10-28T21:30:08.693Z,6.75
2022-10-28T21:32:37.307Z,10.07
2022-10-28T21:35:05.803Z,9.38
2022-10-28T21:37:33.975Z,4.65
2022-10-28T21:40:01.325Z,5.78
2022-10-28T21:42:28.589Z,11.65
2022-10-28T21:44:56.059Z,5.93
2022-10-28T21:47:23.525Z,4.53
2022-10-28T21:49:50.859Z,10.95
2022-10-28T21:52:18.814Z,9.20
2022-10-28T21:54:46.121Z,7.63
2022-10-28T21:57:13.537Z,8.20
2022-10-28T21:59:40.674Z,7.32
2022-10-28T22:02:07.974Z,6.30
2022-10-28T22:04:35.787Z,8.70
2022-10-28T22:07:02.930Z,8.68
2022-10-28T22:09:32.362Z,5.75
2022-10-28T22:12:02.275Z,9.85
2022-10-28T22:14:29.861Z,7.80
2022-10-28T22:16:56.938Z,6.75
2022-10-28T22:19:23.995Z,6.55
2022-10-28T22:21:51.103Z,6.25
2022-10-28T22:24:18.210Z,3.85
2022-10-28T22:26:45.271Z,7.35
2022-10-28T22:29:12.548Z,9.25
2022-10-28T22:31:52.538Z,7.53
2022-10-28T22:34:19.685Z,8.82
2022-10-28T22:36:52.239Z,4.15
2022-10-28T22:39:59.501Z,3.58
2022-10-28T22:42:29.640Z,8.18
2022-10-28T22:44:56.667Z,4.18
2022-10-28T22:47:46.768Z,5.53
2022-10-28T22:50:42.898Z,7.80
2022-10-28T22:53:30.984Z,5.53
2022-10-28T22:59:15.397Z,6.38
2022-10-28T23:01:42.648Z,6.15
2022-10-28T23:04:11.172Z,7.35
2022-10-28T23:06:48.237Z,7.55
2022-10-28T23:09:20.578Z,9.40
2022-10-28T23:11:47.675Z,8.98
2022-10-28T23:14:14.813Z,9.95
2022-10-28T23:16:41.847Z,7.22
2022-10-28T23:19:08.904Z,11.32
2022-10-28T23:21:35.953Z,7.10
2022-10-28T23:24:03.049Z,6.75
2022-10-28T23:26:30.363Z,6.55
2022-10-28T23:28:59.573Z,6.10
2022-10-28T23:31:27.868Z,9.73
2022-10-28T23:33:55.578Z,5.72
2022-10-28T23:36:23.187Z,10.95
2022-10-28T23:38:50.275Z,8.95
2022-10-28T23:41:18.928Z,4.40
2022-10-28T23:43:47.155Z,8.60
2022-10-28T23:46:14.266Z,5.93
2022-10-28T23:48:41.359Z,6.25
2022-10-28T23:51:08.506Z,6.57
2022-10-28T23:53:44.413Z,6.50
2022-10-28T23:56:11.523Z,6.15
2022-10-28T23:58:38.582Z,7.65
